RYR58G ESMS-EPMO
Flight info
| Callsign | RYR58G |
|---|---|
| Flight time | 0h 56m |
| Altitude | 31000 |
| Route | TELMO DCT KOLOB DCT ELPOL N195 SORIX |
| Aircraft | B738/M-SDE2E3FGHIRWXY/LB1 |
Departure
| Time | 2026-04-26 16:48 |
|---|---|
| Airport | Malmö Sturup Airport (ESMS) |
Arrival
| Time | 2026-04-26 17:44 |
|---|---|
| Airport | Warsaw Modlin Airport (EPMO) |
| Time | Latitude | Longitude | Altitude | Speed | Heading |
|---|---|---|---|---|---|
| 2026-04-26 16:19 | 55.54102 | 13.36850 | 230 ft | 0 kts | 173° |
| 2026-04-26 16:37 | 55.54108 | 13.36849 | 230 ft | 4 kts | 173° |
| 2026-04-26 16:37 | 55.54132 | 13.36844 | 234 ft | 1 kts | 173° |
| 2026-04-26 16:37 | 55.54154 | 13.36837 | 232 ft | 4 kts | 148° |
| 2026-04-26 16:37 | 55.54165 | 13.36808 | 230 ft | 3 kts | 83° |
| 2026-04-26 16:38 | 55.54163 | 13.36781 | 233 ft | 0 kts | 83° |
| 2026-04-26 16:41 | 55.54163 | 13.36786 | 230 ft | 1 kts | 83° |
| 2026-04-26 16:41 | 55.54166 | 13.36828 | 230 ft | 5 kts | 83° |
| 2026-04-26 16:41 | 55.54172 | 13.36921 | 230 ft | 10 kts | 83° |
| 2026-04-26 16:42 | 55.54184 | 13.37057 | 231 ft | 13 kts | 71° |
| 2026-04-26 16:42 | 55.54181 | 13.37200 | 230 ft | 12 kts | 140° |
| 2026-04-26 16:42 | 55.54100 | 13.37230 | 230 ft | 12 kts | 173° |
| 2026-04-26 16:42 | 55.54016 | 13.37247 | 230 ft | 13 kts | 173° |
| 2026-04-26 16:43 | 55.53922 | 13.37266 | 231 ft | 14 kts | 172° |
| 2026-04-26 16:43 | 55.53817 | 13.37288 | 230 ft | 16 kts | 174° |
| 2026-04-26 16:43 | 55.53697 | 13.37312 | 232 ft | 19 kts | 173° |
| 2026-04-26 16:43 | 55.53549 | 13.37343 | 230 ft | 24 kts | 173° |
| 2026-04-26 16:44 | 55.53373 | 13.37378 | 230 ft | 26 kts | 173° |
| 2026-04-26 16:44 | 55.53199 | 13.37417 | 231 ft | 24 kts | 170° |
| 2026-04-26 16:44 | 55.53044 | 13.37444 | 231 ft | 22 kts | 172° |
| 2026-04-26 16:44 | 55.52895 | 13.37478 | 231 ft | 21 kts | 176° |
| 2026-04-26 16:45 | 55.52752 | 13.37506 | 230 ft | 21 kts | 173° |
| 2026-04-26 16:45 | 55.52612 | 13.37536 | 231 ft | 20 kts | 173° |
| 2026-04-26 16:45 | 55.52534 | 13.37552 | 232 ft | 9 kts | 173° |
| 2026-04-26 16:45 | 55.52472 | 13.37572 | 230 ft | 9 kts | 162° |
| 2026-04-26 16:46 | 55.52409 | 13.37632 | 231 ft | 12 kts | 144° |
| 2026-04-26 16:46 | 55.52332 | 13.37738 | 232 ft | 16 kts | 135° |
| 2026-04-26 16:46 | 55.52351 | 13.37883 | 237 ft | 7 kts | 0° |
| 2026-04-26 16:46 | 55.52357 | 13.37882 | 237 ft | 2 kts | 353° |
| 2026-04-26 16:47 | 55.52595 | 13.37831 | 237 ft | 70 kts | 354° |
| 2026-04-26 16:47 | 55.53289 | 13.37687 | 239 ft | 129 kts | 352° |
| 2026-04-26 16:47 | 55.54339 | 13.37460 | 371 ft | 167 kts | 352° |
| 2026-04-26 16:47 | 55.55570 | 13.37249 | 800 ft | 190 kts | 352° |
| 2026-04-26 16:48 | 55.56908 | 13.36993 | 1470 ft | 197 kts | 352° |
| 2026-04-26 16:48 | 55.58285 | 13.36713 | 2104 ft | 198 kts | 351° |
| 2026-04-26 16:48 | 55.59669 | 13.36426 | 2682 ft | 204 kts | 350° |
| 2026-04-26 16:48 | 55.61069 | 13.36147 | 3284 ft | 206 kts | 354° |
| 2026-04-26 16:49 | 55.62471 | 13.36786 | 3945 ft | 218 kts | 28° |
| 2026-04-26 16:49 | 55.63532 | 13.38827 | 4625 ft | 232 kts | 59° |
| 2026-04-26 16:49 | 55.63898 | 13.41600 | 5302 ft | 241 kts | 91° |
| 2026-04-26 16:49 | 55.63379 | 13.44414 | 5931 ft | 246 kts | 127° |
| 2026-04-26 16:50 | 55.62124 | 13.46459 | 6571 ft | 247 kts | 147° |
| 2026-04-26 16:50 | 55.60717 | 13.48227 | 7163 ft | 250 kts | 147° |
| 2026-04-26 16:50 | 55.59284 | 13.50031 | 7748 ft | 255 kts | 146° |
| 2026-04-26 16:50 | 55.57836 | 13.51876 | 8373 ft | 259 kts | 145° |
| 2026-04-26 16:51 | 55.56261 | 13.53427 | 8940 ft | 263 kts | 169° |
| 2026-04-26 16:51 | 55.54387 | 13.53849 | 9168 ft | 282 kts | 179° |
| 2026-04-26 16:51 | 55.52355 | 13.54102 | 9447 ft | 303 kts | 179° |
| 2026-04-26 16:51 | 55.50217 | 13.54385 | 9994 ft | 313 kts | 178° |
| 2026-04-26 16:52 | 55.48028 | 13.54699 | 10579 ft | 321 kts | 178° |
| 2026-04-26 16:52 | 55.47268 | 13.54810 | 10654 ft | 329 kts | 178° |
| 2026-04-26 16:52 | 55.43301 | 13.55407 | 11242 ft | 354 kts | 177° |
| 2026-04-26 16:52 | 55.40904 | 13.56540 | 11860 ft | 364 kts | 154° |
| 2026-04-26 16:53 | 55.38850 | 13.59157 | 12594 ft | 367 kts | 136° |
| 2026-04-26 16:53 | 55.37152 | 13.62541 | 13259 ft | 372 kts | 124° |
| 2026-04-26 16:53 | 55.35704 | 13.66341 | 13916 ft | 378 kts | 121° |
| 2026-04-26 16:53 | 55.34283 | 13.70257 | 14546 ft | 383 kts | 121° |
| 2026-04-26 16:54 | 55.32857 | 13.74233 | 15237 ft | 386 kts | 121° |
| 2026-04-26 16:54 | 55.31419 | 13.78227 | 15938 ft | 389 kts | 121° |
| 2026-04-26 16:54 | 55.29956 | 13.82260 | 16620 ft | 393 kts | 121° |
| 2026-04-26 16:54 | 55.28473 | 13.86318 | 17293 ft | 398 kts | 122° |
| 2026-04-26 16:55 | 55.26965 | 13.90417 | 18002 ft | 402 kts | 122° |
| 2026-04-26 16:55 | 55.25435 | 13.94557 | 18637 ft | 408 kts | 122° |
| 2026-04-26 16:55 | 55.23877 | 13.98757 | 19190 ft | 413 kts | 122° |
| 2026-04-26 16:55 | 55.22297 | 14.03004 | 19826 ft | 416 kts | 122° |
| 2026-04-26 16:56 | 55.19107 | 14.11553 | 21037 ft | 423 kts | 122° |
| 2026-04-26 16:56 | 55.17508 | 14.15828 | 21607 ft | 427 kts | 122° |
| 2026-04-26 16:56 | 55.15873 | 14.20190 | 22178 ft | 431 kts | 122° |
| 2026-04-26 16:57 | 55.14760 | 14.23155 | 22565 ft | 433 kts | 122° |
| 2026-04-26 16:57 | 55.12554 | 14.29026 | 23293 ft | 439 kts | 122° |
| 2026-04-26 16:57 | 55.09163 | 14.38018 | 24274 ft | 447 kts | 123° |
| 2026-04-26 16:58 | 55.08001 | 14.41092 | 24563 ft | 451 kts | 123° |
| 2026-04-26 16:58 | 55.06851 | 14.44130 | 24813 ft | 454 kts | 123° |
| 2026-04-26 16:58 | 55.02787 | 14.54841 | 26197 ft | 451 kts | 123° |
| 2026-04-26 16:59 | 55.01080 | 14.59323 | 26843 ft | 448 kts | 123° |
| 2026-04-26 16:59 | 54.97642 | 14.68328 | 28049 ft | 446 kts | 123° |
| 2026-04-26 17:00 | 54.94168 | 14.77396 | 28263 ft | 452 kts | 123° |
| 2026-04-26 17:00 | 54.88877 | 14.91148 | 28480 ft | 469 kts | 123° |
| 2026-04-26 17:01 | 54.87048 | 14.95883 | 28771 ft | 474 kts | 123° |
| 2026-04-26 17:01 | 54.85205 | 15.00648 | 29201 ft | 475 kts | 124° |
| 2026-04-26 17:01 | 54.83371 | 15.05375 | 29876 ft | 471 kts | 124° |
| 2026-04-26 17:01 | 54.81548 | 15.10067 | 30491 ft | 467 kts | 124° |
| 2026-04-26 17:02 | 54.79732 | 15.14733 | 30917 ft | 467 kts | 124° |
| 2026-04-26 17:02 | 54.77910 | 15.19406 | 31255 ft | 468 kts | 124° |
| 2026-04-26 17:02 | 54.74219 | 15.28845 | 31268 ft | 473 kts | 124° |
| 2026-04-26 17:03 | 54.70541 | 15.38218 | 31265 ft | 469 kts | 124° |
| 2026-04-26 17:03 | 54.66864 | 15.47554 | 31276 ft | 471 kts | 124° |
| 2026-04-26 17:04 | 54.63172 | 15.56902 | 31272 ft | 471 kts | 124° |
| 2026-04-26 17:04 | 54.59452 | 15.66227 | 31267 ft | 472 kts | 125° |
| 2026-04-26 17:05 | 54.55602 | 15.75394 | 31267 ft | 472 kts | 126° |
| 2026-04-26 17:05 | 54.51722 | 15.84492 | 31273 ft | 471 kts | 126° |
| 2026-04-26 17:06 | 54.48027 | 15.93804 | 31279 ft | 470 kts | 122° |
| 2026-04-26 17:06 | 54.44505 | 16.03270 | 31263 ft | 469 kts | 122° |
| 2026-04-26 17:07 | 54.41007 | 16.12638 | 31274 ft | 469 kts | 123° |
| 2026-04-26 17:07 | 54.37434 | 16.22072 | 31295 ft | 469 kts | 123° |
| 2026-04-26 17:08 | 54.33852 | 16.31440 | 31288 ft | 470 kts | 123° |
| 2026-04-26 17:08 | 54.30252 | 16.40810 | 31282 ft | 472 kts | 123° |
| 2026-04-26 17:09 | 54.27246 | 16.48609 | 31281 ft | 473 kts | 123° |
| 2026-04-26 17:09 | 54.23002 | 16.59582 | 31273 ft | 474 kts | 123° |
| 2026-04-26 17:10 | 54.19359 | 16.68965 | 31292 ft | 474 kts | 123° |
| 2026-04-26 17:10 | 54.15729 | 16.78278 | 31280 ft | 474 kts | 123° |
| 2026-04-26 17:11 | 54.12062 | 16.87648 | 31278 ft | 475 kts | 123° |
| 2026-04-26 17:11 | 54.08392 | 16.96994 | 31281 ft | 475 kts | 123° |
| 2026-04-26 17:12 | 54.02866 | 17.10998 | 31300 ft | 474 kts | 123° |
| 2026-04-26 17:13 | 53.97326 | 17.24960 | 31286 ft | 475 kts | 123° |
| 2026-04-26 17:14 | 53.91766 | 17.38899 | 31287 ft | 476 kts | 123° |
| 2026-04-26 17:14 | 53.86175 | 17.52834 | 31283 ft | 476 kts | 124° |
| 2026-04-26 17:15 | 53.80557 | 17.66758 | 31276 ft | 478 kts | 123° |
| 2026-04-26 17:16 | 53.76798 | 17.76033 | 31270 ft | 479 kts | 123° |
| 2026-04-26 17:16 | 53.73023 | 17.85312 | 31262 ft | 479 kts | 124° |
| 2026-04-26 17:17 | 53.69239 | 17.94579 | 31263 ft | 479 kts | 124° |
| 2026-04-26 17:17 | 53.65442 | 18.03843 | 31267 ft | 481 kts | 123° |
| 2026-04-26 17:18 | 53.61660 | 18.13038 | 31237 ft | 480 kts | 124° |
| 2026-04-26 17:18 | 53.57843 | 18.22283 | 31255 ft | 480 kts | 124° |
| 2026-04-26 17:19 | 53.52128 | 18.36061 | 31077 ft | 473 kts | 124° |
| 2026-04-26 17:19 | 53.50253 | 18.40565 | 30796 ft | 468 kts | 123° |
| 2026-04-26 17:19 | 53.48395 | 18.45022 | 30430 ft | 465 kts | 123° |
| 2026-04-26 17:20 | 53.46542 | 18.49456 | 30015 ft | 462 kts | 123° |
| 2026-04-26 17:20 | 53.45320 | 18.52376 | 29738 ft | 460 kts | 123° |
| 2026-04-26 17:20 | 53.42867 | 18.58229 | 29220 ft | 455 kts | 123° |
| 2026-04-26 17:20 | 53.41051 | 18.62554 | 28829 ft | 452 kts | 123° |
| 2026-04-26 17:21 | 53.39245 | 18.66847 | 28449 ft | 449 kts | 123° |
| 2026-04-26 17:21 | 53.37450 | 18.71107 | 28067 ft | 446 kts | 123° |
| 2026-04-26 17:21 | 53.35663 | 18.75342 | 27687 ft | 443 kts | 123° |
| 2026-04-26 17:21 | 53.33891 | 18.79532 | 27317 ft | 441 kts | 123° |
| 2026-04-26 17:22 | 53.32125 | 18.83702 | 26983 ft | 439 kts | 122° |
| 2026-04-26 17:22 | 53.30359 | 18.87868 | 26590 ft | 439 kts | 122° |
| 2026-04-26 17:22 | 53.28595 | 18.92021 | 26212 ft | 438 kts | 122° |
| 2026-04-26 17:22 | 53.26829 | 18.96171 | 25842 ft | 439 kts | 122° |
| 2026-04-26 17:23 | 53.25078 | 19.00282 | 25464 ft | 439 kts | 122° |
| 2026-04-26 17:23 | 53.23306 | 19.04433 | 25077 ft | 438 kts | 122° |
| 2026-04-26 17:23 | 53.21517 | 19.08616 | 24688 ft | 437 kts | 122° |
| 2026-04-26 17:23 | 53.19750 | 19.12743 | 24280 ft | 435 kts | 122° |
| 2026-04-26 17:24 | 53.18017 | 19.16781 | 23941 ft | 433 kts | 122° |
| 2026-04-26 17:24 | 53.16263 | 19.20859 | 23518 ft | 432 kts | 122° |
| 2026-04-26 17:24 | 53.14518 | 19.24914 | 23140 ft | 431 kts | 121° |
| 2026-04-26 17:24 | 53.12772 | 19.28963 | 22729 ft | 429 kts | 121° |
| 2026-04-26 17:25 | 53.11036 | 19.32984 | 22344 ft | 427 kts | 121° |
| 2026-04-26 17:25 | 53.09305 | 19.36985 | 21966 ft | 424 kts | 121° |
| 2026-04-26 17:25 | 53.07585 | 19.40955 | 21598 ft | 422 kts | 121° |
| 2026-04-26 17:25 | 53.05875 | 19.44897 | 21229 ft | 420 kts | 121° |
| 2026-04-26 17:26 | 53.04172 | 19.48816 | 20859 ft | 418 kts | 121° |
| 2026-04-26 17:26 | 53.02473 | 19.52721 | 20493 ft | 416 kts | 121° |
| 2026-04-26 17:26 | 53.00781 | 19.56602 | 20131 ft | 414 kts | 121° |
| 2026-04-26 17:26 | 52.99095 | 19.60465 | 19761 ft | 412 kts | 121° |
| 2026-04-26 17:27 | 52.97416 | 19.64306 | 19421 ft | 411 kts | 121° |
| 2026-04-26 17:27 | 52.95735 | 19.68149 | 19018 ft | 411 kts | 121° |
| 2026-04-26 17:27 | 52.94060 | 19.71971 | 18644 ft | 410 kts | 121° |
| 2026-04-26 17:27 | 52.92385 | 19.75784 | 18237 ft | 409 kts | 121° |
| 2026-04-26 17:28 | 52.90715 | 19.79582 | 17851 ft | 406 kts | 121° |
| 2026-04-26 17:28 | 52.89058 | 19.83342 | 17474 ft | 401 kts | 121° |
| 2026-04-26 17:28 | 52.87428 | 19.87031 | 17103 ft | 393 kts | 121° |
| 2026-04-26 17:28 | 52.85827 | 19.90650 | 16745 ft | 385 kts | 121° |
| 2026-04-26 17:29 | 52.84260 | 19.94189 | 16404 ft | 378 kts | 121° |
| 2026-04-26 17:29 | 52.83235 | 19.96501 | 16179 ft | 374 kts | 121° |
| 2026-04-26 17:29 | 52.81204 | 20.01080 | 15737 ft | 365 kts | 121° |
| 2026-04-26 17:29 | 52.79710 | 20.04446 | 15411 ft | 360 kts | 121° |
| 2026-04-26 17:30 | 52.78231 | 20.07776 | 15073 ft | 359 kts | 121° |
| 2026-04-26 17:30 | 52.76757 | 20.11092 | 14763 ft | 359 kts | 121° |
| 2026-04-26 17:30 | 52.75293 | 20.14383 | 14459 ft | 361 kts | 121° |
| 2026-04-26 17:30 | 52.73808 | 20.17712 | 14139 ft | 360 kts | 122° |
| 2026-04-26 17:31 | 52.72320 | 20.21044 | 13782 ft | 360 kts | 122° |
| 2026-04-26 17:31 | 52.70837 | 20.24359 | 13418 ft | 359 kts | 122° |
| 2026-04-26 17:31 | 52.69353 | 20.27670 | 13071 ft | 358 kts | 122° |
| 2026-04-26 17:31 | 52.67871 | 20.30974 | 12742 ft | 356 kts | 122° |
| 2026-04-26 17:32 | 52.66402 | 20.34241 | 12400 ft | 352 kts | 123° |
| 2026-04-26 17:32 | 52.64957 | 20.37452 | 12014 ft | 346 kts | 123° |
| 2026-04-26 17:32 | 52.63534 | 20.40611 | 11684 ft | 339 kts | 123° |
| 2026-04-26 17:32 | 52.62144 | 20.43697 | 11414 ft | 334 kts | 122° |
| 2026-04-26 17:33 | 52.60764 | 20.46759 | 11116 ft | 332 kts | 123° |
| 2026-04-26 17:33 | 52.59391 | 20.49801 | 10817 ft | 329 kts | 123° |
| 2026-04-26 17:33 | 52.58038 | 20.52789 | 10555 ft | 321 kts | 123° |
| 2026-04-26 17:34 | 52.55529 | 20.58550 | 10248 ft | 295 kts | 110° |
| 2026-04-26 17:34 | 52.55026 | 20.61693 | 10080 ft | 280 kts | 90° |
| 2026-04-26 17:34 | 52.54869 | 20.64866 | 9815 ft | 279 kts | 87° |
| 2026-04-26 17:34 | 52.54756 | 20.68067 | 9573 ft | 281 kts | 87° |
| 2026-04-26 17:35 | 52.54651 | 20.71258 | 9372 ft | 278 kts | 87° |
| 2026-04-26 17:35 | 52.54548 | 20.74423 | 9140 ft | 278 kts | 87° |
| 2026-04-26 17:35 | 52.54450 | 20.77609 | 8872 ft | 280 kts | 87° |
| 2026-04-26 17:35 | 52.54355 | 20.80801 | 8605 ft | 279 kts | 87° |
| 2026-04-26 17:36 | 52.54264 | 20.83977 | 8346 ft | 278 kts | 87° |
| 2026-04-26 17:36 | 52.54177 | 20.87156 | 7981 ft | 281 kts | 87° |
| 2026-04-26 17:36 | 52.54094 | 20.90357 | 7757 ft | 279 kts | 86° |
| 2026-04-26 17:36 | 52.53996 | 20.93497 | 7635 ft | 273 kts | 86° |
| 2026-04-26 17:37 | 52.53886 | 20.96583 | 7417 ft | 267 kts | 87° |
| 2026-04-26 17:37 | 52.53775 | 20.99546 | 7137 ft | 261 kts | 87° |
| 2026-04-26 17:37 | 52.53660 | 21.02489 | 6870 ft | 255 kts | 87° |
| 2026-04-26 17:38 | 52.51959 | 21.07655 | 5831 ft | 279 kts | 154° |
| 2026-04-26 17:38 | 52.50136 | 21.08222 | 5717 ft | 261 kts | 192° |
| 2026-04-26 17:38 | 52.48481 | 21.07360 | 5572 ft | 242 kts | 215° |
| 2026-04-26 17:38 | 52.47208 | 21.05735 | 5311 ft | 226 kts | 238° |
| 2026-04-26 17:39 | 52.46403 | 21.03624 | 5023 ft | 213 kts | 256° |
| 2026-04-26 17:39 | 52.46098 | 21.01340 | 4657 ft | 199 kts | 284° |
| 2026-04-26 17:39 | 52.46646 | 20.99403 | 4354 ft | 185 kts | 308° |
| 2026-04-26 17:39 | 52.47156 | 20.97430 | 4099 ft | 193 kts | 289° |
| 2026-04-26 17:40 | 52.47365 | 20.95216 | 3888 ft | 200 kts | 281° |
| 2026-04-26 17:40 | 52.47393 | 20.94441 | 3807 ft | 201 kts | 279° |
| 2026-04-26 17:40 | 52.47307 | 20.90604 | 3446 ft | 205 kts | 272° |
| 2026-04-26 17:40 | 52.47213 | 20.89059 | 3288 ft | 206 kts | 270° |
| 2026-04-26 17:41 | 52.47040 | 20.86731 | 3098 ft | 203 kts | 270° |
| 2026-04-26 17:41 | 52.46867 | 20.84455 | 2879 ft | 199 kts | 270° |
| 2026-04-26 17:41 | 52.46681 | 20.82172 | 2471 ft | 204 kts | 268° |
| 2026-04-26 17:41 | 52.46477 | 20.79876 | 2170 ft | 203 kts | 268° |
| 2026-04-26 17:42 | 52.46300 | 20.77612 | 1784 ft | 197 kts | 269° |
| 2026-04-26 17:42 | 52.46165 | 20.75453 | 1445 ft | 183 kts | 271° |
| 2026-04-26 17:42 | 52.45897 | 20.73469 | 1137 ft | 172 kts | 262° |
| 2026-04-26 17:42 | 52.45695 | 20.71618 | 906 ft | 154 kts | 272° |
| 2026-04-26 17:43 | 52.45596 | 20.69991 | 732 ft | 134 kts | 266° |
| 2026-04-26 17:43 | 52.45432 | 20.68496 | 540 ft | 138 kts | 270° |
| 2026-04-26 17:43 | 52.45287 | 20.66970 | 374 ft | 133 kts | 269° |
| 2026-04-26 17:43 | 52.45167 | 20.65577 | 335 ft | 107 kts | 262° |
| 2026-04-26 17:44 | 52.45083 | 20.64729 | 335 ft | 47 kts | 261° |
| 2026-04-26 17:44 | 52.45046 | 20.64433 | 334 ft | 12 kts | 254° |
| 2026-04-26 17:44 | 52.45036 | 20.64284 | 334 ft | 19 kts | 264° |
| 2026-04-26 17:44 | 52.45009 | 20.63982 | 334 ft | 34 kts | 261° |
| 2026-04-26 17:45 | 52.44974 | 20.63597 | 334 ft | 33 kts | 260° |
| 2026-04-26 17:45 | 52.44931 | 20.63412 | 335 ft | 14 kts | 219° |
| 2026-04-26 17:45 | 52.44839 | 20.63407 | 333 ft | 13 kts | 171° |
| 2026-04-26 17:45 | 52.44748 | 20.63424 | 335 ft | 13 kts | 174° |
| 2026-04-26 17:46 | 52.44662 | 20.63451 | 336 ft | 13 kts | 166° |
| 2026-04-26 17:46 | 52.44632 | 20.63568 | 337 ft | 12 kts | 83° |
| 2026-04-26 17:46 | 52.44645 | 20.63705 | 337 ft | 12 kts | 81° |
| 2026-04-26 17:46 | 52.44658 | 20.63852 | 336 ft | 15 kts | 81° |
| 2026-04-26 17:47 | 52.44676 | 20.64042 | 337 ft | 19 kts | 81° |
| 2026-04-26 17:47 | 52.44692 | 20.64199 | 333 ft | 22 kts | 81° |
| 2026-04-26 17:47 | 52.44721 | 20.64519 | 334 ft | 21 kts | 81° |
| 2026-04-26 17:47 | 52.44744 | 20.64752 | 335 ft | 20 kts | 80° |
| 2026-04-26 17:48 | 52.44759 | 20.64913 | 337 ft | 7 kts | 82° |
| 2026-04-26 17:48 | 52.44738 | 20.64953 | 332 ft | 3 kts | 189° |
| 2026-04-26 17:48 | 52.44719 | 20.64942 | 334 ft | 1 kts | 203° |
| 2026-04-26 17:48 | 52.44715 | 20.64939 | 334 ft | 0 kts | 203° |
| 2026-04-26 17:49 | 52.44714 | 20.64938 | 335 ft | 0 kts | 205° |